sensor_id;sensor_type;location;lat;lon;timestamp;P1;durP1;ratioP1;P2;durP2;ratioP2
8952;SDS011;4511;50.890;8.054;2023-05-20T00:01:32;3.63;;;3.00;;
8952;SDS011;4511;50.890;8.054;2023-05-20T00:03:59;3.20;;;2.83;;
8952;SDS011;4511;50.890;8.054;2023-05-20T00:06:26;3.10;;;2.90;;
8952;SDS011;4511;50.890;8.054;2023-05-20T00:08:53;3.30;;;3.00;;
8952;SDS011;4511;50.890;8.054;2023-05-20T00:11:21;3.30;;;3.00;;
8952;SDS011;4511;50.890;8.054;2023-05-20T00:13:48;3.13;;;2.83;;
8952;SDS011;4511;50.890;8.054;2023-05-20T00:16:15;3.20;;;3.00;;
8952;SDS011;4511;50.890;8.054;2023-05-20T00:18:42;4.07;;;2.90;;
8952;SDS011;4511;50.890;8.054;2023-05-20T00:21:09;3.83;;;2.90;;
8952;SDS011;4511;50.890;8.054;2023-05-20T00:23:36;2.87;;;2.63;;
8952;SDS011;4511;50.890;8.054;2023-05-20T00:26:02;3.40;;;2.97;;
8952;SDS011;4511;50.890;8.054;2023-05-20T00:28:31;2.90;;;2.70;;
8952;SDS011;4511;50.890;8.054;2023-05-20T00:30:58;4.33;;;3.10;;
8952;SDS011;4511;50.890;8.054;2023-05-20T00:33:25;3.20;;;3.00;;
8952;SDS011;4511;50.890;8.054;2023-05-20T00:35:52;5.47;;;2.90;;
8952;SDS011;4511;50.890;8.054;2023-05-20T00:38:18;4.60;;;2.90;;
8952;SDS011;4511;50.890;8.054;2023-05-20T00:40:45;4.03;;;2.90;;
8952;SDS011;4511;50.890;8.054;2023-05-20T00:43:12;3.00;;;2.80;;
8952;SDS011;4511;50.890;8.054;2023-05-20T00:45:40;3.10;;;2.90;;
8952;SDS011;4511;50.890;8.054;2023-05-20T00:48:07;3.53;;;3.23;;
8952;SDS011;4511;50.890;8.054;2023-05-20T00:50:34;4.23;;;3.17;;
8952;SDS011;4511;50.890;8.054;2023-05-20T00:53:02;4.40;;;2.90;;
8952;SDS011;4511;50.890;8.054;2023-05-20T00:55:28;3.40;;;3.10;;
8952;SDS011;4511;50.890;8.054;2023-05-20T00:57:55;4.10;;;3.13;;
8952;SDS011;4511;50.890;8.054;2023-05-20T01:00:22;3.50;;;3.20;;
8952;SDS011;4511;50.890;8.054;2023-05-20T01:02:51;5.63;;;3.20;;
8952;SDS011;4511;50.890;8.054;2023-05-20T01:05:18;3.30;;;3.00;;
8952;SDS011;4511;50.890;8.054;2023-05-20T01:07:44;3.83;;;3.20;;
8952;SDS011;4511;50.890;8.054;2023-05-20T01:10:11;3.20;;;3.00;;
8952;SDS011;4511;50.890;8.054;2023-05-20T01:12:39;4.10;;;3.10;;
8952;SDS011;4511;50.890;8.054;2023-05-20T01:15:10;3.67;;;3.33;;
8952;SDS011;4511;50.890;8.054;2023-05-20T01:17:39;3.27;;;3.03;;
8952;SDS011;4511;50.890;8.054;2023-05-20T01:20:12;3.93;;;3.47;;
8952;SDS011;4511;50.890;8.054;2023-05-20T01:22:47;5.03;;;3.27;;
8952;SDS011;4511;50.890;8.054;2023-05-20T01:25:14;4.93;;;3.60;;
8952;SDS011;4511;50.890;8.054;2023-05-20T01:27:41;4.73;;;3.53;;
8952;SDS011;4511;50.890;8.054;2023-05-20T01:30:08;3.73;;;3.40;;
8952;SDS011;4511;50.890;8.054;2023-05-20T01:32:37;4.33;;;3.43;;
8952;SDS011;4511;50.890;8.054;2023-05-20T01:35:06;3.90;;;3.50;;
8952;SDS011;4511;50.890;8.054;2023-05-20T01:37:35;3.97;;;3.43;;
8952;SDS011;4511;50.890;8.054;2023-05-20T01:40:07;4.17;;;3.80;;
8952;SDS011;4511;50.890;8.054;2023-05-20T01:42:36;4.37;;;3.33;;
8952;SDS011;4511;50.890;8.054;2023-05-20T01:45:04;4.23;;;3.70;;
8952;SDS011;4511;50.890;8.054;2023-05-20T01:47:32;4.20;;;3.80;;
8952;SDS011;4511;50.890;8.054;2023-05-20T01:49:59;3.80;;;3.50;;
8952;SDS011;4511;50.890;8.054;2023-05-20T01:52:25;4.63;;;3.70;;
8952;SDS011;4511;50.890;8.054;2023-05-20T01:54:52;5.63;;;4.10;;
8952;SDS011;4511;50.890;8.054;2023-05-20T01:57:21;4.77;;;4.03;;
8952;SDS011;4511;50.890;8.054;2023-05-20T01:59:51;4.37;;;3.93;;
8952;SDS011;4511;50.890;8.054;2023-05-20T02:02:18;5.93;;;4.23;;
8952;SDS011;4511;50.890;8.054;2023-05-20T02:04:47;4.93;;;4.33;;
8952;SDS011;4511;50.890;8.054;2023-05-20T02:07:16;4.93;;;4.43;;
8952;SDS011;4511;50.890;8.054;2023-05-20T02:09:43;5.17;;;4.67;;
8952;SDS011;4511;50.890;8.054;2023-05-20T02:12:10;5.27;;;4.07;;
8952;SDS011;4511;50.890;8.054;2023-05-20T02:14:42;4.70;;;4.17;;
8952;SDS011;4511;50.890;8.054;2023-05-20T02:17:10;5.60;;;4.00;;
8952;SDS011;4511;50.890;8.054;2023-05-20T02:19:36;5.73;;;4.30;;
8952;SDS011;4511;50.890;8.054;2023-05-20T02:22:06;4.47;;;4.07;;
8952;SDS011;4511;50.890;8.054;2023-05-20T02:24:33;4.97;;;4.33;;
8952;SDS011;4511;50.890;8.054;2023-05-20T02:27:00;4.60;;;4.20;;
8952;SDS011;4511;50.890;8.054;2023-05-20T02:29:27;4.90;;;4.20;;
8952;SDS011;4511;50.890;8.054;2023-05-20T02:31:55;4.83;;;4.30;;
8952;SDS011;4511;50.890;8.054;2023-05-20T02:34:22;7.30;;;4.30;;
8952;SDS011;4511;50.890;8.054;2023-05-20T02:36:50;4.47;;;4.07;;
8952;SDS011;4511;50.890;8.054;2023-05-20T02:39:16;5.17;;;4.43;;
8952;SDS011;4511;50.890;8.054;2023-05-20T02:41:43;4.80;;;4.30;;
8952;SDS011;4511;50.890;8.054;2023-05-20T02:44:11;4.57;;;4.17;;
8952;SDS011;4511;50.890;8.054;2023-05-20T02:46:39;4.47;;;4.07;;
8952;SDS011;4511;50.890;8.054;2023-05-20T02:49:07;6.07;;;4.40;;
8952;SDS011;4511;50.890;8.054;2023-05-20T02:51:33;4.47;;;4.07;;
8952;SDS011;4511;50.890;8.054;2023-05-20T02:54:00;5.77;;;4.47;;
8952;SDS011;4511;50.890;8.054;2023-05-20T02:56:27;4.73;;;4.20;;
8952;SDS011;4511;50.890;8.054;2023-05-20T02:58:54;4.63;;;4.10;;
8952;SDS011;4511;50.890;8.054;2023-05-20T03:01:21;4.90;;;4.50;;
8952;SDS011;4511;50.890;8.054;2023-05-20T03:03:48;5.17;;;4.67;;
8952;SDS011;4511;50.890;8.054;2023-05-20T03:06:16;4.90;;;4.50;;
8952;SDS011;4511;50.890;8.054;2023-05-20T03:08:43;4.83;;;3.90;;
8952;SDS011;4511;50.890;8.054;2023-05-20T03:11:09;6.43;;;4.57;;
8952;SDS011;4511;50.890;8.054;2023-05-20T03:13:36;7.97;;;4.20;;
8952;SDS011;4511;50.890;8.054;2023-05-20T03:16:03;5.23;;;4.33;;
8952;SDS011;4511;50.890;8.054;2023-05-20T03:18:30;5.00;;;4.50;;
8952;SDS011;4511;50.890;8.054;2023-05-20T03:20:57;5.30;;;4.53;;
8952;SDS011;4511;50.890;8.054;2023-05-20T03:23:25;4.57;;;4.07;;
8952;SDS011;4511;50.890;8.054;2023-05-20T03:25:52;4.87;;;4.47;;
8952;SDS011;4511;50.890;8.054;2023-05-20T03:28:19;4.93;;;4.27;;
8952;SDS011;4511;50.890;8.054;2023-05-20T03:30:45;6.43;;;3.97;;
8952;SDS011;4511;50.890;8.054;2023-05-20T03:33:12;4.90;;;4.40;;
8952;SDS011;4511;50.890;8.054;2023-05-20T03:35:42;7.03;;;4.63;;
8952;SDS011;4511;50.890;8.054;2023-05-20T03:38:09;6.43;;;4.53;;
8952;SDS011;4511;50.890;8.054;2023-05-20T03:40:37;5.47;;;4.73;;
8952;SDS011;4511;50.890;8.054;2023-05-20T03:43:04;4.60;;;4.20;;
8952;SDS011;4511;50.890;8.054;2023-05-20T03:45:31;5.13;;;4.40;;
8952;SDS011;4511;50.890;8.054;2023-05-20T03:47:58;6.73;;;4.97;;
8952;SDS011;4511;50.890;8.054;2023-05-20T03:50:27;5.23;;;4.70;;
8952;SDS011;4511;50.890;8.054;2023-05-20T03:52:55;4.57;;;4.17;;
8952;SDS011;4511;50.890;8.054;2023-05-20T03:55:21;4.90;;;4.50;;
8952;SDS011;4511;50.890;8.054;2023-05-20T03:57:50;5.93;;;4.70;;
8952;SDS011;4511;50.890;8.054;2023-05-20T04:00:17;5.40;;;4.80;;
8952;SDS011;4511;50.890;8.054;2023-05-20T04:02:43;7.80;;;4.37;;
8952;SDS011;4511;50.890;8.054;2023-05-20T04:05:10;5.20;;;4.70;;
8952;SDS011;4511;50.890;8.054;2023-05-20T04:07:37;4.93;;;4.43;;
8952;SDS011;4511;50.890;8.054;2023-05-20T04:10:05;5.27;;;4.77;;
8952;SDS011;4511;50.890;8.054;2023-05-20T04:12:33;5.20;;;4.43;;
8952;SDS011;4511;50.890;8.054;2023-05-20T04:15:04;4.90;;;4.50;;
8952;SDS011;4511;50.890;8.054;2023-05-20T04:17:31;4.63;;;4.23;;
8952;SDS011;4511;50.890;8.054;2023-05-20T04:19:58;4.90;;;4.50;;
8952;SDS011;4511;50.890;8.054;2023-05-20T04:22:25;5.20;;;4.70;;
8952;SDS011;4511;50.890;8.054;2023-05-20T04:24:52;5.67;;;4.40;;
8952;SDS011;4511;50.890;8.054;2023-05-20T04:27:20;6.20;;;4.47;;
8952;SDS011;4511;50.890;8.054;2023-05-20T04:29:47;5.00;;;4.60;;
8952;SDS011;4511;50.890;8.054;2023-05-20T04:32:16;4.83;;;4.43;;
8952;SDS011;4511;50.890;8.054;2023-05-20T04:34:44;5.90;;;5.00;;
8952;SDS011;4511;50.890;8.054;2023-05-20T04:37:12;5.50;;;4.90;;
8952;SDS011;4511;50.890;8.054;2023-05-20T04:39:39;5.53;;;5.00;;
8952;SDS011;4511;50.890;8.054;2023-05-20T04:42:07;5.53;;;5.03;;
8952;SDS011;4511;50.890;8.054;2023-05-20T04:44:34;5.10;;;4.70;;
8952;SDS011;4511;50.890;8.054;2023-05-20T04:47:02;7.30;;;4.80;;
8952;SDS011;4511;50.890;8.054;2023-05-20T04:49:30;5.87;;;5.03;;
8952;SDS011;4511;50.890;8.054;2023-05-20T04:51:56;5.23;;;4.73;;
8952;SDS011;4511;50.890;8.054;2023-05-20T04:54:24;5.50;;;4.83;;
8952;SDS011;4511;50.890;8.054;2023-05-20T04:56:51;7.00;;;5.00;;
8952;SDS011;4511;50.890;8.054;2023-05-20T04:59:18;5.17;;;4.63;;
8952;SDS011;4511;50.890;8.054;2023-05-20T05:01:45;5.20;;;4.70;;
8952;SDS011;4511;50.890;8.054;2023-05-20T05:04:11;5.03;;;4.60;;
8952;SDS011;4511;50.890;8.054;2023-05-20T05:06:39;5.07;;;4.57;;
8952;SDS011;4511;50.890;8.054;2023-05-20T05:09:06;5.03;;;4.53;;
8952;SDS011;4511;50.890;8.054;2023-05-20T05:11:33;5.20;;;4.70;;
8952;SDS011;4511;50.890;8.054;2023-05-20T05:14:00;5.57;;;4.57;;
8952;SDS011;4511;50.890;8.054;2023-05-20T05:16:27;6.20;;;4.57;;
8952;SDS011;4511;50.890;8.054;2023-05-20T05:18:54;4.83;;;4.33;;
8952;SDS011;4511;50.890;8.054;2023-05-20T05:21:22;4.80;;;4.40;;
8952;SDS011;4511;50.890;8.054;2023-05-20T05:23:50;7.00;;;4.90;;
8952;SDS011;4511;50.890;8.054;2023-05-20T05:26:17;5.53;;;4.47;;
8952;SDS011;4511;50.890;8.054;2023-05-20T05:28:43;5.80;;;4.97;;
8952;SDS011;4511;50.890;8.054;2023-05-20T05:31:10;5.20;;;4.70;;
8952;SDS011;4511;50.890;8.054;2023-05-20T05:33:37;6.03;;;4.50;;
8952;SDS011;4511;50.890;8.054;2023-05-20T05:36:04;4.80;;;4.40;;
8952;SDS011;4511;50.890;8.054;2023-05-20T05:38:31;5.50;;;4.90;;
8952;SDS011;4511;50.890;8.054;2023-05-20T05:40:59;4.83;;;4.43;;
8952;SDS011;4511;50.890;8.054;2023-05-20T05:43:26;4.93;;;4.20;;
8952;SDS011;4511;50.890;8.054;2023-05-20T05:45:53;7.30;;;4.83;;
8952;SDS011;4511;50.890;8.054;2023-05-20T05:48:20;7.10;;;4.63;;
8952;SDS011;4511;50.890;8.054;2023-05-20T05:50:47;5.40;;;4.90;;
8952;SDS011;4511;50.890;8.054;2023-05-20T05:53:14;5.30;;;4.73;;
8952;SDS011;4511;50.890;8.054;2023-05-20T05:55:41;4.90;;;4.50;;
8952;SDS011;4511;50.890;8.054;2023-05-20T05:58:09;4.83;;;4.40;;
8952;SDS011;4511;50.890;8.054;2023-05-20T06:00:36;5.63;;;4.77;;
8952;SDS011;4511;50.890;8.054;2023-05-20T06:03:03;6.83;;;4.87;;
8952;SDS011;4511;50.890;8.054;2023-05-20T06:05:29;6.23;;;5.30;;
8952;SDS011;4511;50.890;8.054;2023-05-20T06:07:56;5.37;;;4.30;;
8952;SDS011;4511;50.890;8.054;2023-05-20T06:10:23;4.70;;;4.30;;
8952;SDS011;4511;50.890;8.054;2023-05-20T06:12:50;5.37;;;4.87;;
8952;SDS011;4511;50.890;8.054;2023-05-20T06:15:18;4.63;;;4.23;;
8952;SDS011;4511;50.890;8.054;2023-05-20T06:17:45;4.80;;;4.40;;
8952;SDS011;4511;50.890;8.054;2023-05-20T06:20:12;5.20;;;4.70;;
8952;SDS011;4511;50.890;8.054;2023-05-20T06:22:39;5.10;;;4.67;;
8952;SDS011;4511;50.890;8.054;2023-05-20T06:25:06;5.43;;;4.93;;
8952;SDS011;4511;50.890;8.054;2023-05-20T06:27:33;5.97;;;4.90;;
8952;SDS011;4511;50.890;8.054;2023-05-20T06:30:00;5.50;;;5.00;;
8952;SDS011;4511;50.890;8.054;2023-05-20T06:32:28;5.53;;;4.70;;
8952;SDS011;4511;50.890;8.054;2023-05-20T06:34:55;5.37;;;4.87;;
8952;SDS011;4511;50.890;8.054;2023-05-20T06:37:22;6.90;;;5.13;;
8952;SDS011;4511;50.890;8.054;2023-05-20T06:39:49;5.20;;;4.70;;
8952;SDS011;4511;50.890;8.054;2023-05-20T06:42:18;6.77;;;5.17;;
8952;SDS011;4511;50.890;8.054;2023-05-20T06:44:45;5.73;;;5.20;;
8952;SDS011;4511;50.890;8.054;2023-05-20T06:47:12;5.50;;;4.90;;
8952;SDS011;4511;50.890;8.054;2023-05-20T06:49:41;5.57;;;5.10;;
8952;SDS011;4511;50.890;8.054;2023-05-20T06:52:07;7.23;;;5.13;;
8952;SDS011;4511;50.890;8.054;2023-05-20T06:54:35;5.63;;;5.03;;
8952;SDS011;4511;50.890;8.054;2023-05-20T06:57:05;6.30;;;5.70;;
8952;SDS011;4511;50.890;8.054;2023-05-20T06:59:32;5.80;;;5.30;;
8952;SDS011;4511;50.890;8.054;2023-05-20T07:02:05;5.70;;;5.20;;
8952;SDS011;4511;50.890;8.054;2023-05-20T07:04:33;6.43;;;5.30;;
8952;SDS011;4511;50.890;8.054;2023-05-20T07:07:01;5.90;;;5.30;;
8952;SDS011;4511;50.890;8.054;2023-05-20T07:09:28;6.53;;;4.97;;
8952;SDS011;4511;50.890;8.054;2023-05-20T07:11:54;5.53;;;5.03;;
8952;SDS011;4511;50.890;8.054;2023-05-20T07:14:21;6.03;;;5.43;;
8952;SDS011;4511;50.890;8.054;2023-05-20T07:16:48;5.53;;;5.03;;
8952;SDS011;4511;50.890;8.054;2023-05-20T07:19:15;5.63;;;5.13;;
8952;SDS011;4511;50.890;8.054;2023-05-20T07:21:41;8.10;;;5.37;;
8952;SDS011;4511;50.890;8.054;2023-05-20T07:24:09;5.80;;;5.20;;
8952;SDS011;4511;50.890;8.054;2023-05-20T07:26:36;6.87;;;5.23;;
8952;SDS011;4511;50.890;8.054;2023-05-20T07:29:03;7.23;;;5.50;;
8952;SDS011;4511;50.890;8.054;2023-05-20T07:31:30;6.20;;;5.33;;
8952;SDS011;4511;50.890;8.054;2023-05-20T07:33:57;5.70;;;5.07;;
8952;SDS011;4511;50.890;8.054;2023-05-20T07:36:25;5.40;;;4.87;;
8952;SDS011;4511;50.890;8.054;2023-05-20T07:38:52;5.67;;;5.00;;
8952;SDS011;4511;50.890;8.054;2023-05-20T07:41:20;7.73;;;5.50;;
8952;SDS011;4511;50.890;8.054;2023-05-20T07:43:47;6.40;;;5.60;;
8952;SDS011;4511;50.890;8.054;2023-05-20T07:46:15;6.37;;;5.73;;
8952;SDS011;4511;50.890;8.054;2023-05-20T07:48:41;7.53;;;5.90;;
8952;SDS011;4511;50.890;8.054;2023-05-20T07:51:09;7.57;;;5.60;;
8952;SDS011;4511;50.890;8.054;2023-05-20T07:53:36;6.47;;;5.77;;
8952;SDS011;4511;50.890;8.054;2023-05-20T07:56:03;5.87;;;5.37;;
8952;SDS011;4511;50.890;8.054;2023-05-20T07:58:32;6.33;;;5.80;;
8952;SDS011;4511;50.890;8.054;2023-05-20T08:00:59;6.93;;;5.83;;
8952;SDS011;4511;50.890;8.054;2023-05-20T08:03:26;6.53;;;5.90;;
8952;SDS011;4511;50.890;8.054;2023-05-20T08:05:53;5.77;;;4.97;;
8952;SDS011;4511;50.890;8.054;2023-05-20T08:08:20;6.00;;;5.50;;
8952;SDS011;4511;50.890;8.054;2023-05-20T08:10:46;7.37;;;5.03;;
8952;SDS011;4511;50.890;8.054;2023-05-20T08:13:13;6.60;;;5.37;;
8952;SDS011;4511;50.890;8.054;2023-05-20T08:15:41;7.17;;;5.50;;
8952;SDS011;4511;50.890;8.054;2023-05-20T08:18:14;6.27;;;5.73;;
8952;SDS011;4511;50.890;8.054;2023-05-20T08:20:41;6.97;;;5.53;;
8952;SDS011;4511;50.890;8.054;2023-05-20T08:23:08;7.63;;;5.47;;
8952;SDS011;4511;50.890;8.054;2023-05-20T08:25:35;6.77;;;6.07;;
8952;SDS011;4511;50.890;8.054;2023-05-20T08:28:02;7.93;;;5.77;;
8952;SDS011;4511;50.890;8.054;2023-05-20T08:30:30;6.47;;;5.90;;
8952;SDS011;4511;50.890;8.054;2023-05-20T08:32:59;7.47;;;5.87;;
8952;SDS011;4511;50.890;8.054;2023-05-20T08:35:26;6.20;;;5.63;;
8952;SDS011;4511;50.890;8.054;2023-05-20T08:37:53;6.70;;;6.10;;
8952;SDS011;4511;50.890;8.054;2023-05-20T08:40:20;6.30;;;5.70;;
8952;SDS011;4511;50.890;8.054;2023-05-20T08:42:47;6.60;;;6.00;;
8952;SDS011;4511;50.890;8.054;2023-05-20T08:45:17;5.83;;;5.30;;
8952;SDS011;4511;50.890;8.054;2023-05-20T08:47:45;8.40;;;5.93;;
8952;SDS011;4511;50.890;8.054;2023-05-20T08:50:13;6.70;;;6.10;;
8952;SDS011;4511;50.890;8.054;2023-05-20T08:52:41;7.93;;;5.90;;
8952;SDS011;4511;50.890;8.054;2023-05-20T08:55:10;6.40;;;5.80;;
8952;SDS011;4511;50.890;8.054;2023-05-20T08:57:46;6.70;;;6.10;;
8952;SDS011;4511;50.890;8.054;2023-05-20T09:00:14;6.77;;;6.07;;
8952;SDS011;4511;50.890;8.054;2023-05-20T09:02:43;7.50;;;5.77;;
8952;SDS011;4511;50.890;8.054;2023-05-20T09:05:12;6.53;;;5.70;;
8952;SDS011;4511;50.890;8.054;2023-05-20T09:07:39;7.27;;;5.77;;
8952;SDS011;4511;50.890;8.054;2023-05-20T09:10:07;6.10;;;5.50;;
8952;SDS011;4511;50.890;8.054;2023-05-20T09:12:35;6.50;;;5.90;;
8952;SDS011;4511;50.890;8.054;2023-05-20T09:15:03;6.67;;;6.10;;
8952;SDS011;4511;50.890;8.054;2023-05-20T09:17:31;6.07;;;5.57;;
8952;SDS011;4511;50.890;8.054;2023-05-20T09:20:00;6.43;;;5.83;;
8952;SDS011;4511;50.890;8.054;2023-05-20T09:22:29;6.40;;;5.67;;
8952;SDS011;4511;50.890;8.054;2023-05-20T09:24:56;5.70;;;5.20;;
8952;SDS011;4511;50.890;8.054;2023-05-20T09:27:23;9.27;;;5.60;;
8952;SDS011;4511;50.890;8.054;2023-05-20T09:29:50;6.90;;;6.20;;
8952;SDS011;4511;50.890;8.054;2023-05-20T09:32:17;7.20;;;6.10;;
8952;SDS011;4511;50.890;8.054;2023-05-20T09:34:48;6.47;;;5.77;;
8952;SDS011;4511;50.890;8.054;2023-05-20T09:37:16;6.83;;;6.07;;
8952;SDS011;4511;50.890;8.054;2023-05-20T09:39:47;6.27;;;5.63;;
8952;SDS011;4511;50.890;8.054;2023-05-20T09:42:22;6.77;;;6.17;;
8952;SDS011;4511;50.890;8.054;2023-05-20T09:44:53;7.23;;;5.67;;
8952;SDS011;4511;50.890;8.054;2023-05-20T09:47:20;6.50;;;5.70;;
8952;SDS011;4511;50.890;8.054;2023-05-20T09:49:48;6.80;;;6.10;;
8952;SDS011;4511;50.890;8.054;2023-05-20T09:52:17;8.00;;;5.83;;
8952;SDS011;4511;50.890;8.054;2023-05-20T09:54:44;6.03;;;5.43;;
8952;SDS011;4511;50.890;8.054;2023-05-20T09:57:14;5.87;;;5.30;;
8952;SDS011;4511;50.890;8.054;2023-05-20T09:59:41;6.00;;;5.50;;
8952;SDS011;4511;50.890;8.054;2023-05-20T10:02:11;6.63;;;5.40;;
8952;SDS011;4511;50.890;8.054;2023-05-20T10:04:40;9.57;;;5.63;;
8952;SDS011;4511;50.890;8.054;2023-05-20T10:10:31;7.33;;;5.83;;
8952;SDS011;4511;50.890;8.054;2023-05-20T10:13:04;5.60;;;5.10;;
8952;SDS011;4511;50.890;8.054;2023-05-20T10:15:42;6.43;;;5.47;;
8952;SDS011;4511;50.890;8.054;2023-05-20T10:18:18;6.17;;;5.53;;
8952;SDS011;4511;50.890;8.054;2023-05-20T10:20:55;7.83;;;6.27;;
8952;SDS011;4511;50.890;8.054;2023-05-20T10:23:22;6.77;;;6.10;;
8952;SDS011;4511;50.890;8.054;2023-05-20T10:25:55;8.73;;;5.60;;
8952;SDS011;4511;50.890;8.054;2023-05-20T10:28:28;6.77;;;6.17;;
8952;SDS011;4511;50.890;8.054;2023-05-20T10:30:57;6.50;;;5.90;;
8952;SDS011;4511;50.890;8.054;2023-05-20T10:33:25;6.00;;;5.47;;
8952;SDS011;4511;50.890;8.054;2023-05-20T10:35:52;7.03;;;6.23;;
8952;SDS011;4511;50.890;8.054;2023-05-20T10:38:20;6.40;;;5.80;;
8952;SDS011;4511;50.890;8.054;2023-05-20T10:40:46;6.63;;;5.80;;
8952;SDS011;4511;50.890;8.054;2023-05-20T10:43:15;6.30;;;5.70;;
8952;SDS011;4511;50.890;8.054;2023-05-20T10:45:46;7.03;;;6.33;;
8952;SDS011;4511;50.890;8.054;2023-05-20T10:48:22;6.73;;;5.07;;
8952;SDS011;4511;50.890;8.054;2023-05-20T10:50:52;7.03;;;6.10;;
8952;SDS011;4511;50.890;8.054;2023-05-20T10:53:21;6.20;;;5.50;;
8952;SDS011;4511;50.890;8.054;2023-05-20T10:55:48;5.70;;;5.20;;
8952;SDS011;4511;50.890;8.054;2023-05-20T10:58:18;7.00;;;5.63;;
8952;SDS011;4511;50.890;8.054;2023-05-20T11:00:46;5.80;;;5.20;;
8952;SDS011;4511;50.890;8.054;2023-05-20T11:03:14;6.60;;;6.00;;
8952;SDS011;4511;50.890;8.054;2023-05-20T11:05:42;6.70;;;5.50;;
8952;SDS011;4511;50.890;8.054;2023-05-20T11:08:10;5.40;;;5.00;;
8952;SDS011;4511;50.890;8.054;2023-05-20T11:10:37;5.37;;;4.93;;
8952;SDS011;4511;50.890;8.054;2023-05-20T11:13:04;6.47;;;5.60;;
8952;SDS011;4511;50.890;8.054;2023-05-20T11:15:33;5.90;;;5.40;;
8952;SDS011;4511;50.890;8.054;2023-05-20T11:18:01;6.20;;;5.60;;
8952;SDS011;4511;50.890;8.054;2023-05-20T11:20:29;5.40;;;5.00;;
8952;SDS011;4511;50.890;8.054;2023-05-20T11:22:59;6.40;;;5.07;;
8952;SDS011;4511;50.890;8.054;2023-05-20T11:25:27;8.43;;;5.37;;
8952;SDS011;4511;50.890;8.054;2023-05-20T11:27:54;8.60;;;5.70;;
8952;SDS011;4511;50.890;8.054;2023-05-20T11:30:21;9.60;;;5.70;;
8952;SDS011;4511;50.890;8.054;2023-05-20T11:32:59;6.23;;;5.63;;
8952;SDS011;4511;50.890;8.054;2023-05-20T11:35:29;6.27;;;5.67;;
8952;SDS011;4511;50.890;8.054;2023-05-20T11:37:59;6.43;;;5.63;;
8952;SDS011;4511;50.890;8.054;2023-05-20T11:40:28;5.90;;;5.37;;
8952;SDS011;4511;50.890;8.054;2023-05-20T11:42:56;6.03;;;5.43;;
8952;SDS011;4511;50.890;8.054;2023-05-20T11:45:24;5.70;;;5.10;;
8952;SDS011;4511;50.890;8.054;2023-05-20T11:48:00;6.43;;;5.37;;
8952;SDS011;4511;50.890;8.054;2023-05-20T11:50:28;6.97;;;5.60;;
8952;SDS011;4511;50.890;8.054;2023-05-20T11:52:59;6.67;;;6.07;;
8952;SDS011;4511;50.890;8.054;2023-05-20T11:55:27;6.53;;;5.97;;
8952;SDS011;4511;50.890;8.054;2023-05-20T11:57:57;6.40;;;5.80;;
8952;SDS011;4511;50.890;8.054;2023-05-20T12:00:24;6.57;;;6.00;;
8952;SDS011;4511;50.890;8.054;2023-05-20T12:02:50;9.80;;;5.83;;
8952;SDS011;4511;50.890;8.054;2023-05-20T12:05:18;12.40;;;6.20;;
8952;SDS011;4511;50.890;8.054;2023-05-20T12:07:45;7.90;;;6.30;;
8952;SDS011;4511;50.890;8.054;2023-05-20T12:10:13;6.97;;;6.37;;
8952;SDS011;4511;50.890;8.054;2023-05-20T12:12:40;6.77;;;6.20;;
8952;SDS011;4511;50.890;8.054;2023-05-20T12:15:08;7.50;;;6.80;;
8952;SDS011;4511;50.890;8.054;2023-05-20T12:17:43;7.03;;;6.30;;
8952;SDS011;4511;50.890;8.054;2023-05-20T12:20:14;6.80;;;6.10;;
8952;SDS011;4511;50.890;8.054;2023-05-20T12:22:43;7.50;;;6.53;;
8952;SDS011;4511;50.890;8.054;2023-05-20T12:25:10;6.53;;;5.93;;
8952;SDS011;4511;50.890;8.054;2023-05-20T12:27:39;6.67;;;6.07;;
8952;SDS011;4511;50.890;8.054;2023-05-20T12:30:07;8.70;;;6.90;;
8952;SDS011;4511;50.890;8.054;2023-05-20T12:32:34;7.47;;;6.77;;
8952;SDS011;4511;50.890;8.054;2023-05-20T12:35:01;6.90;;;6.30;;
8952;SDS011;4511;50.890;8.054;2023-05-20T12:37:28;8.00;;;7.20;;
8952;SDS011;4511;50.890;8.054;2023-05-20T12:39:56;7.20;;;6.57;;
8952;SDS011;4511;50.890;8.054;2023-05-20T12:42:23;7.03;;;6.40;;
8952;SDS011;4511;50.890;8.054;2023-05-20T12:44:50;7.43;;;6.53;;
8952;SDS011;4511;50.890;8.054;2023-05-20T12:47:16;7.63;;;6.63;;
8952;SDS011;4511;50.890;8.054;2023-05-20T12:49:44;6.97;;;6.37;;
8952;SDS011;4511;50.890;8.054;2023-05-20T12:52:10;9.20;;;7.00;;
8952;SDS011;4511;50.890;8.054;2023-05-20T12:54:37;9.03;;;7.10;;
8952;SDS011;4511;50.890;8.054;2023-05-20T12:57:05;7.10;;;6.50;;
8952;SDS011;4511;50.890;8.054;2023-05-20T12:59:32;7.90;;;7.20;;
8952;SDS011;4511;50.890;8.054;2023-05-20T13:02:06;9.77;;;6.80;;
8952;SDS011;4511;50.890;8.054;2023-05-20T13:04:46;7.57;;;6.87;;
8952;SDS011;4511;50.890;8.054;2023-05-20T13:07:13;7.40;;;6.70;;
8952;SDS011;4511;50.890;8.054;2023-05-20T13:09:40;7.27;;;6.57;;
8952;SDS011;4511;50.890;8.054;2023-05-20T13:12:08;10.13;;;7.10;;
8952;SDS011;4511;50.890;8.054;2023-05-20T13:14:35;7.30;;;6.60;;
8952;SDS011;4511;50.890;8.054;2023-05-20T13:17:01;8.00;;;6.27;;
8952;SDS011;4511;50.890;8.054;2023-05-20T13:19:28;7.20;;;6.50;;
8952;SDS011;4511;50.890;8.054;2023-05-20T13:21:55;9.27;;;6.03;;
8952;SDS011;4511;50.890;8.054;2023-05-20T13:24:22;7.30;;;6.60;;
8952;SDS011;4511;50.890;8.054;2023-05-20T13:26:48;7.47;;;6.77;;
8952;SDS011;4511;50.890;8.054;2023-05-20T13:29:16;7.63;;;6.90;;
8952;SDS011;4511;50.890;8.054;2023-05-20T13:31:43;9.07;;;8.27;;
8952;SDS011;4511;50.890;8.054;2023-05-20T13:34:10;7.40;;;6.70;;
8952;SDS011;4511;50.890;8.054;2023-05-20T13:36:36;7.43;;;6.27;;
8952;SDS011;4511;50.890;8.054;2023-05-20T13:39:04;6.93;;;6.23;;
8952;SDS011;4511;50.890;8.054;2023-05-20T13:41:31;20.10;;;7.03;;
8952;SDS011;4511;50.890;8.054;2023-05-20T13:43:58;14.33;;;7.40;;
8952;SDS011;4511;50.890;8.054;2023-05-20T13:46:26;9.00;;;6.53;;
8952;SDS011;4511;50.890;8.054;2023-05-20T13:48:52;7.80;;;6.47;;
8952;SDS011;4511;50.890;8.054;2023-05-20T13:51:19;7.93;;;6.67;;
8952;SDS011;4511;50.890;8.054;2023-05-20T13:53:46;7.50;;;6.80;;
8952;SDS011;4511;50.890;8.054;2023-05-20T13:56:13;7.20;;;6.50;;
8952;SDS011;4511;50.890;8.054;2023-05-20T13:58:40;8.30;;;6.30;;
8952;SDS011;4511;50.890;8.054;2023-05-20T14:01:07;7.43;;;6.60;;
8952;SDS011;4511;50.890;8.054;2023-05-20T14:03:37;6.97;;;6.37;;
8952;SDS011;4511;50.890;8.054;2023-05-20T14:06:05;11.73;;;10.20;;
8952;SDS011;4511;50.890;8.054;2023-05-20T14:08:32;7.67;;;7.00;;
8952;SDS011;4511;50.890;8.054;2023-05-20T14:10:59;7.53;;;6.83;;
8952;SDS011;4511;50.890;8.054;2023-05-20T14:13:25;7.77;;;6.97;;
8952;SDS011;4511;50.890;8.054;2023-05-20T14:15:52;9.10;;;7.00;;
8952;SDS011;4511;50.890;8.054;2023-05-20T14:18:19;9.20;;;7.43;;
8952;SDS011;4511;50.890;8.054;2023-05-20T14:20:47;7.40;;;6.70;;
8952;SDS011;4511;50.890;8.054;2023-05-20T14:23:14;7.13;;;6.53;;
8952;SDS011;4511;50.890;8.054;2023-05-20T14:25:41;7.10;;;6.50;;
8952;SDS011;4511;50.890;8.054;2023-05-20T14:28:08;7.90;;;7.10;;
8952;SDS011;4511;50.890;8.054;2023-05-20T14:30:35;6.87;;;6.17;;
8952;SDS011;4511;50.890;8.054;2023-05-20T14:33:02;8.00;;;7.20;;
8952;SDS011;4511;50.890;8.054;2023-05-20T14:35:29;7.70;;;6.90;;
8952;SDS011;4511;50.890;8.054;2023-05-20T14:37:57;7.10;;;6.40;;
8952;SDS011;4511;50.890;8.054;2023-05-20T14:40:24;10.17;;;6.73;;
8952;SDS011;4511;50.890;8.054;2023-05-20T14:42:51;10.10;;;9.20;;
8952;SDS011;4511;50.890;8.054;2023-05-20T14:45:18;8.60;;;7.70;;
8952;SDS011;4511;50.890;8.054;2023-05-20T14:47:45;7.40;;;6.70;;
8952;SDS011;4511;50.890;8.054;2023-05-20T14:50:12;7.13;;;6.43;;
8952;SDS011;4511;50.890;8.054;2023-05-20T14:52:39;8.13;;;7.27;;
8952;SDS011;4511;50.890;8.054;2023-05-20T14:55:07;7.20;;;6.60;;
8952;SDS011;4511;50.890;8.054;2023-05-20T14:57:34;8.13;;;7.33;;
8952;SDS011;4511;50.890;8.054;2023-05-20T15:00:01;8.50;;;7.53;;
8952;SDS011;4511;50.890;8.054;2023-05-20T15:02:28;7.53;;;6.83;;
8952;SDS011;4511;50.890;8.054;2023-05-20T15:04:55;8.23;;;7.20;;
8952;SDS011;4511;50.890;8.054;2023-05-20T15:07:22;8.23;;;7.43;;
8952;SDS011;4511;50.890;8.054;2023-05-20T15:09:49;8.27;;;7.40;;
8952;SDS011;4511;50.890;8.054;2023-05-20T15:12:17;7.53;;;6.83;;
8952;SDS011;4511;50.890;8.054;2023-05-20T15:14:43;8.13;;;7.33;;
8952;SDS011;4511;50.890;8.054;2023-05-20T15:17:10;7.10;;;6.40;;
8952;SDS011;4511;50.890;8.054;2023-05-20T15:19:37;6.93;;;6.33;;
8952;SDS011;4511;50.890;8.054;2023-05-20T15:22:05;9.13;;;7.23;;